Time;durP1;ratioP1;P1;durP2;ratioP2;P2;SDS_P1;SDS_P2;PMS_P1;PMS_P2;Temp;Humidity;BMP_temperature;BMP_pressure;BME280_temperature;BME280_humidity;BME280_pressure;Samples;Min_cycle;Max_cycle;Signal;HPM_P1;HPM_P2
2023/05/14 00:01:30;;;;;;;15.18;10.57;;;;;;;14.09;100.00;101753.00;5261838;28;20744;-65
2023/05/14 00:04:02;;;;;;;13.52;9.73;;;;;;;14.06;100.00;101755.94;5254331;28;20046;-65
2023/05/14 00:06:33;;;;;;;11.30;10.10;;;;;;;14.04;100.00;101752.50;5256980;28;20044;-65
2023/05/14 00:09:05;;;;;;;11.23;9.20;;;;;;;14.02;100.00;101749.09;5254618;28;20039;-65
2023/05/14 00:11:36;;;;;;;16.13;11.18;;;;;;;14.06;100.00;101745.19;5260517;28;20027;-65
2023/05/14 00:14:08;;;;;;;12.63;10.07;;;;;;;14.01;100.00;101742.00;5256701;28;20111;-65
2023/05/14 00:16:39;;;;;;;12.23;10.75;;;;;;;14.00;100.00;101743.84;5258035;28;20159;-65
2023/05/14 00:19:11;;;;;;;12.90;10.27;;;;;;;13.98;100.00;101736.84;5258590;28;20031;-65
2023/05/14 00:21:42;;;;;;;13.88;10.38;;;;;;;13.93;100.00;101731.84;5257471;28;20036;-65
2023/05/14 00:24:13;;;;;;;13.10;10.52;;;;;;;13.86;100.00;101735.97;5265533;28;20059;-65
2023/05/14 00:26:45;;;;;;;14.95;10.20;;;;;;;13.81;100.00;101744.38;5257670;28;20051;-65
2023/05/14 00:29:16;;;;;;;16.77;11.27;;;;;;;13.75;100.00;101742.19;5257331;28;20025;-65
2023/05/14 00:31:48;;;;;;;14.05;11.02;;;;;;;13.66;100.00;101740.19;5257604;28;20654;-64
2023/05/14 00:34:19;;;;;;;15.32;10.95;;;;;;;13.64;100.00;101736.75;5254177;28;20466;-65
2023/05/14 00:36:51;;;;;;;14.10;11.68;;;;;;;13.60;100.00;101729.91;5263350;28;20471;-65
2023/05/14 00:39:22;;;;;;;13.90;11.63;;;;;;;13.62;100.00;101731.50;5258243;28;20498;-64
2023/05/14 00:41:54;;;;;;;13.38;11.63;;;;;;;13.47;100.00;101727.28;5259596;28;20471;-64
2023/05/14 00:44:25;;;;;;;12.25;10.95;;;;;;;13.44;100.00;101724.84;5259375;28;20064;-64
2023/05/14 00:46:57;;;;;;;15.68;12.45;;;;;;;13.37;100.00;101721.75;5256261;28;20070;-64
2023/05/14 00:49:29;;;;;;;15.15;12.30;;;;;;;13.33;100.00;101721.13;5254411;28;20047;-64
2023/05/14 00:52:01;;;;;;;13.68;12.18;;;;;;;13.34;100.00;101719.31;5253687;28;20998;-64
2023/05/14 00:54:32;;;;;;;14.80;12.18;;;;;;;13.30;100.00;101716.00;5256268;28;20020;-65
2023/05/14 00:57:05;;;;;;;15.32;13.15;;;;;;;13.27;100.00;101715.31;5256347;28;20068;-64
2023/05/14 00:59:39;;;;;;;15.35;13.20;;;;;;;13.27;100.00;101721.56;5257141;28;20126;-64
2023/05/14 01:02:10;;;;;;;;;;;;;;;13.36;100.00;101714.69;5254935;28;20056;-65
2023/05/14 01:04:42;;;;;;;18.52;13.95;;;;;;;13.20;100.00;101720.28;5255712;28;20256;-64
2023/05/14 01:07:51;;;;;;;17.05;13.32;;;;;;;13.19;100.00;101712.38;5258198;28;20055;-64
2023/05/14 01:10:59;;;;;;;15.10;13.50;;;;;;;13.18;100.00;101716.03;5260929;28;20471;-64
2023/05/14 01:13:52;;;;;;;15.73;14.00;;;;;;;13.06;100.00;101709.72;5256078;28;20055;-64
2023/05/14 01:16:26;;;;;;;16.63;13.23;;;;;;;13.03;100.00;101720.69;5255993;28;20040;-64
2023/05/14 01:18:59;;;;;;;17.58;14.93;;;;;;;12.95;100.00;101714.06;5255460;28;20538;-64
2023/05/14 01:21:39;;;;;;;19.27;15.07;;;;;;;12.94;100.00;101715.03;5251050;28;20033;-64
2023/05/14 01:24:11;;;;;;;17.40;15.20;;;;;;;12.91;100.00;101706.38;5258315;28;20036;-64
2023/05/14 01:26:42;;;;;;;18.85;15.45;;;;;;;12.86;100.00;101708.50;5253941;28;20024;-64
2023/05/14 01:29:16;;;;;;;16.20;14.50;;;;;;;12.84;100.00;101708.63;5258671;28;20037;-64
2023/05/14 01:31:50;;;;;;;18.70;15.45;;;;;;;12.82;100.00;101712.38;5259690;28;20383;-64
2023/05/14 01:34:23;;;;;;;17.85;15.55;;;;;;;12.85;100.00;101704.97;5254220;28;20032;-64
2023/05/14 01:36:56;;;;;;;18.65;14.63;;;;;;;12.78;100.00;101710.88;5265088;28;20139;-64
2023/05/14 01:39:31;;;;;;;19.60;15.13;;;;;;;12.70;100.00;101695.38;5252835;28;20106;-64
2023/05/14 01:42:04;;;;;;;17.23;15.38;;;;;;;12.66;100.00;101693.88;5255083;28;20028;-64
2023/05/14 01:44:35;;;;;;;18.40;15.77;;;;;;;12.66;100.00;101699.25;5253603;28;20029;-64
2023/05/14 01:47:06;;;;;;;17.92;16.00;;;;;;;12.58;100.00;101696.22;5257444;28;20113;-64
2023/05/14 01:49:38;;;;;;;18.50;15.63;;;;;;;12.58;100.00;101698.91;5269653;28;20047;-64
2023/05/14 01:52:09;;;;;;;20.95;16.65;;;;;;;12.56;100.00;101704.41;5267009;28;20106;-64
2023/05/14 01:54:41;;;;;;;18.52;16.67;;;;;;;12.52;100.00;101706.44;5257778;28;20493;-64
2023/05/14 01:57:12;;;;;;;21.05;16.90;;;;;;;12.48;100.00;101709.41;5262333;28;20384;-64
2023/05/14 01:59:43;;;;;;;19.52;16.08;;;;;;;12.43;100.00;101714.25;5262902;28;20046;-64
2023/05/14 02:02:15;;;;;;;21.75;16.98;;;;;;;12.40;100.00;101696.59;5263843;28;20059;-64
2023/05/14 02:04:46;;;;;;;19.13;16.77;;;;;;;12.33;100.00;101698.84;5261138;28;20033;-64
2023/05/14 02:07:18;;;;;;;20.50;17.83;;;;;;;12.29;100.00;101693.81;5261261;28;20064;-64
2023/05/14 02:09:49;;;;;;;21.42;17.88;;;;;;;12.29;100.00;101700.03;5269255;28;20041;-64
2023/05/14 02:12:21;;;;;;;20.92;16.60;;;;;;;12.25;100.00;101695.84;5267902;28;20028;-64
2023/05/14 02:14:52;;;;;;;23.20;18.27;;;;;;;12.23;100.00;101691.56;5262003;28;20452;-64
2023/05/14 02:17:25;;;;;;;20.45;17.73;;;;;;;12.24;100.00;101694.13;5265281;28;20032;-64
2023/05/14 02:19:56;;;;;;;21.88;17.58;;;;;;;12.22;100.00;101696.06;5261975;28;20032;-64
2023/05/14 02:22:27;;;;;;;20.90;17.73;;;;;;;12.21;100.00;101693.50;5265535;28;20033;-64
2023/05/14 02:24:59;;;;;;;23.05;18.75;;;;;;;12.23;100.00;101696.91;5261718;28;20431;-64
2023/05/14 02:27:31;;;;;;;21.85;17.77;;;;;;;12.19;100.00;101690.91;5271218;28;20401;-64
2023/05/14 02:30:03;;;;;;;23.95;19.70;;;;;;;12.16;100.00;101705.38;5262721;28;20483;-64
2023/05/14 02:32:34;;;;;;;23.67;19.10;;;;;;;12.15;100.00;101694.78;5260718;28;20032;-64
2023/05/14 02:35:06;;;;;;;24.05;19.35;;;;;;;12.23;100.00;101696.91;5265039;28;20040;-64
2023/05/14 02:37:37;;;;;;;21.52;19.30;;;;;;;12.25;100.00;101689.63;5263419;28;20039;-64
2023/05/14 02:40:09;;;;;;;23.35;18.73;;;;;;;12.19;100.00;101685.56;5271670;28;20047;-64
2023/05/14 02:42:41;;;;;;;21.77;19.48;;;;;;;12.18;100.00;101691.91;5270128;28;20462;-64
2023/05/14 02:45:12;;;;;;;22.23;19.17;;;;;;;12.15;100.00;101682.25;5265866;28;20111;-64
2023/05/14 02:47:43;;;;;;;20.95;18.52;;;;;;;12.15;100.00;101692.94;5263915;28;20058;-64
2023/05/14 02:50:15;;;;;;;22.67;20.00;;;;;;;12.11;100.00;101694.13;5260420;28;20107;-64
2023/05/14 02:52:46;;;;;;;21.00;18.83;;;;;;;12.10;100.00;101687.09;5265969;28;20055;-64
2023/05/14 02:55:18;;;;;;;24.40;19.90;;;;;;;12.06;100.00;101690.94;5264737;28;20032;-64
2023/05/14 02:57:51;;;;;;;22.67;19.50;;;;;;;12.09;100.00;101684.50;5260838;28;20067;-64
2023/05/14 03:00:23;;;;;;;23.10;19.42;;;;;;;12.06;100.00;101703.44;5253865;28;20340;-64
2023/05/14 03:02:54;;;;;;;20.98;18.77;;;;;;;12.01;100.00;101697.56;5259210;28;20035;-64
2023/05/14 03:05:25;;;;;;;24.98;20.42;;;;;;;11.99;100.00;101692.31;5255804;28;20410;-65
2023/05/14 03:07:57;;;;;;;24.75;19.30;;;;;;;11.96;100.00;101690.69;5254298;28;20479;-64
2023/05/14 03:10:28;;;;;;;23.77;20.20;;;;;;;11.94;100.00;101692.63;5254480;28;20509;-64
2023/05/14 03:13:00;;;;;;;23.00;19.42;;;;;;;11.93;100.00;101685.56;5250753;28;20028;-64
2023/05/14 03:15:31;;;;;;;22.08;19.52;;;;;;;11.87;100.00;101693.97;5255246;28;20035;-64
2023/05/14 03:18:03;;;;;;;23.00;20.42;;;;;;;11.84;100.00;101688.00;5256475;28;20651;-64
2023/05/14 03:20:34;;;;;;;24.85;20.65;;;;;;;11.87;100.00;101685.97;5261097;28;20024;-64
2023/05/14 03:23:06;;;;;;;23.77;21.17;;;;;;;11.82;100.00;101672.03;5255925;28;20119;-64
2023/05/14 03:25:37;;;;;;;23.77;20.25;;;;;;;11.76;100.00;101677.81;5258705;28;20029;-64
2023/05/14 03:28:08;;;;;;;23.35;20.67;;;;;;;11.73;100.00;101675.34;5255737;28;21770;-65
2023/05/14 03:30:40;;;;;;;24.58;20.90;;;;;;;11.66;100.00;101676.72;5259792;28;20031;-64
2023/05/14 03:33:11;;;;;;;24.20;21.60;;;;;;;11.64;100.00;101665.25;5294142;28;20024;-64
2023/05/14 03:35:43;;;;;;;25.58;21.25;;;;;;;11.62;100.00;101662.72;5254210;28;20024;-64
2023/05/14 03:38:14;;;;;;;25.50;20.75;;;;;;;11.61;100.00;101674.34;5255576;28;20047;-64
2023/05/14 03:40:45;;;;;;;26.20;21.70;;;;;;;11.49;100.00;101672.53;5259417;28;20017;-64
2023/05/14 03:43:17;;;;;;;24.77;21.92;;;;;;;11.51;100.00;101678.63;5256108;28;20020;-64
2023/05/14 03:45:51;;;;;;;25.10;21.92;;;;;;;11.45;100.00;101676.34;5262310;28;20406;-64
2023/05/14 03:48:22;;;;;;;27.08;22.35;;;;;;;11.38;100.00;101683.91;5259368;28;20020;-64
2023/05/14 03:50:54;;;;;;;27.27;22.63;;;;;;;11.34;100.00;101672.56;5255675;28;20058;-64
2023/05/14 03:53:25;;;;;;;26.25;22.60;;;;;;;11.28;100.00;101674.81;5262574;28;20024;-64
2023/05/14 03:55:56;;;;;;;28.75;23.45;;;;;;;11.24;100.00;101676.81;5258725;28;20099;-64
2023/05/14 03:58:28;;;;;;;28.15;23.63;;;;;;;11.19;100.00;101678.94;5261795;28;20063;-64
2023/05/14 04:00:59;;;;;;;28.73;23.95;;;;;;;11.15;100.00;101680.94;5258629;28;20092;-64
2023/05/14 04:03:30;;;;;;;27.23;24.20;;;;;;;11.14;100.00;101683.72;5256862;28;20053;-64
2023/05/14 04:06:02;;;;;;;31.38;24.17;;;;;;;11.11;100.00;101675.91;5262209;28;20040;-64
2023/05/14 04:08:33;;;;;;;29.92;25.48;;;;;;;11.13;100.00;101674.84;5269693;28;20063;-64
2023/05/14 04:11:05;;;;;;;27.35;23.88;;;;;;;11.12;100.00;101675.81;5262980;28;20033;-64
2023/05/14 04:13:36;;;;;;;31.65;25.15;;;;;;;11.08;100.00;101676.09;5266709;28;20021;-64
2023/05/14 04:16:07;;;;;;;30.40;25.05;;;;;;;11.06;100.00;101670.84;5273425;28;20021;-64
2023/05/14 04:18:39;;;;;;;29.70;25.17;;;;;;;11.03;100.00;101668.41;5274703;28;20036;-64
2023/05/14 04:21:11;;;;;;;32.67;24.92;;;;;;;11.03;100.00;101681.75;5269867;28;20060;-65
2023/05/14 04:23:42;;;;;;;30.08;23.88;;;;;;;10.99;100.00;101674.91;5266036;28;20021;-64
2023/05/14 04:26:13;;;;;;;28.48;25.23;;;;;;;10.99;100.00;101666.91;5269436;28;20343;-64
2023/05/14 04:28:45;;;;;;;31.30;24.60;;;;;;;10.97;100.00;101676.81;5268824;28;20040;-64
2023/05/14 04:31:16;;;;;;;30.80;24.83;;;;;;;10.92;100.00;101671.75;5267576;28;20379;-64
2023/05/14 04:33:48;;;;;;;34.47;25.92;;;;;;;10.91;100.00;101672.72;5268426;28;20549;-64
2023/05/14 04:36:19;;;;;;;30.55;23.77;;;;;;;10.92;100.00;101676.25;5268900;28;20040;-65
2023/05/14 04:38:50;;;;;;;31.35;24.67;;;;;;;11.02;100.00;101677.34;5269161;28;20029;-65
2023/05/14 04:41:22;;;;;;;30.15;24.75;;;;;;;10.92;100.00;101678.94;5262395;28;20421;-65
2023/05/14 04:43:55;;;;;;;29.45;26.13;;;;;;;10.88;100.00;101670.25;5264796;28;20047;-64
2023/05/14 04:46:27;;;;;;;33.63;27.05;;;;;;;10.90;100.00;101676.34;5262757;28;20119;-64
2023/05/14 04:48:58;;;;;;;31.85;25.35;;;;;;;10.91;100.00;101671.84;5273246;28;20043;-64
2023/05/14 04:51:30;;;;;;;31.88;25.05;;;;;;;10.91;100.00;101674.53;5272320;28;20105;-64
2023/05/14 04:54:02;;;;;;;30.52;24.13;;;;;;;10.93;100.00;101678.84;5276070;28;20028;-64
2023/05/14 04:56:33;;;;;;;34.50;25.08;;;;;;;10.88;100.00;101682.75;5269875;28;20425;-64
2023/05/14 04:59:05;;;;;;;29.75;24.48;;;;;;;10.89;100.00;101677.31;5263261;28;20353;-64
2023/05/14 05:01:36;;;;;;;32.70;25.50;;;;;;;10.92;100.00;101686.94;5265099;28;20370;-64
2023/05/14 05:04:07;;;;;;;30.45;24.33;;;;;;;10.93;100.00;101675.28;5261535;28;20304;-64
2023/05/14 05:06:39;;;;;;;27.65;23.17;;;;;;;10.94;100.00;101685.88;5269136;28;20364;-64
2023/05/14 05:09:11;;;;;;;30.02;23.80;;;;;;;10.96;100.00;101689.28;5263989;28;20112;-64
2023/05/14 05:11:42;;;;;;;34.78;25.02;;;;;;;10.93;100.00;101689.50;5261465;28;20471;-64
2023/05/14 05:14:14;;;;;;;30.38;24.15;;;;;;;11.06;100.00;101692.22;5261106;28;20560;-64
2023/05/14 05:16:45;;;;;;;30.05;23.20;;;;;;;11.01;100.00;101686.34;5259105;28;20047;-64
2023/05/14 05:19:17;;;;;;;29.92;24.17;;;;;;;11.03;100.00;101686.25;5259681;28;20048;-64
2023/05/14 05:21:48;;;;;;;29.38;23.80;;;;;;;11.05;100.00;101695.88;5257609;28;20562;-64
2023/05/14 05:24:19;;;;;;;28.00;22.98;;;;;;;11.11;100.00;101697.28;5254141;28;20426;-64
2023/05/14 05:26:52;;;;;;;30.48;22.80;;;;;;;11.11;100.00;101703.47;5259445;28;20420;-64
2023/05/14 05:29:24;;;;;;;30.45;23.27;;;;;;;11.20;100.00;101712.72;5254891;28;20031;-64
2023/05/14 05:31:55;;;;;;;27.55;22.52;;;;;;;11.21;100.00;101702.88;5264210;28;20442;-64
2023/05/14 05:34:26;;;;;;;26.77;22.30;;;;;;;11.25;100.00;101686.53;5254984;28;20043;-64
2023/05/14 05:36:58;;;;;;;31.15;23.45;;;;;;;11.25;100.00;101701.72;5253480;28;20049;-64
2023/05/14 05:39:33;;;;;;;28.73;23.15;;;;;;;11.28;100.00;101701.53;5257181;28;20126;-64
2023/05/14 05:42:05;;;;;;;29.42;22.63;;;;;;;11.37;100.00;101695.56;5252351;28;20040;-64
2023/05/14 05:44:36;;;;;;;27.50;22.35;;;;;;;11.38;100.00;101695.47;5255745;28;20479;-64
2023/05/14 05:47:07;;;;;;;31.25;23.80;;;;;;;11.40;100.00;101697.19;5254311;28;20044;-64
2023/05/14 05:49:39;;;;;;;27.73;21.95;;;;;;;11.43;100.00;101697.84;5252178;28;20456;-64
2023/05/14 05:52:10;;;;;;;28.30;22.30;;;;;;;11.45;100.00;101695.03;5252218;28;20043;-64
2023/05/14 05:54:42;;;;;;;27.25;21.33;;;;;;;11.50;100.00;101696.44;5251975;28;20134;-64
2023/05/14 05:57:13;;;;;;;30.20;22.17;;;;;;;11.48;100.00;101701.03;5254578;28;20025;-64
2023/05/14 05:59:44;;;;;;;25.60;20.75;;;;;;;11.49;100.00;101704.59;5252413;28;20557;-64
2023/05/14 06:02:16;;;;;;;28.88;22.58;;;;;;;11.60;100.00;101711.88;5257163;28;20017;-65
2023/05/14 06:04:47;;;;;;;27.63;22.35;;;;;;;11.57;100.00;101710.28;5250181;28;20040;-65
2023/05/14 06:07:18;;;;;;;28.42;22.50;;;;;;;11.58;100.00;101710.19;5254779;28;20025;-65
2023/05/14 06:09:50;;;;;;;30.30;22.90;;;;;;;11.58;100.00;101718.19;5252647;28;20086;-65
2023/05/14 06:12:21;;;;;;;26.25;21.20;;;;;;;11.60;100.00;101714.56;5252117;28;20037;-65
2023/05/14 06:14:54;;;;;;;28.60;21.45;;;;;;;11.63;100.00;101717.03;5256132;28;20064;-65
2023/05/14 06:17:26;;;;;;;27.05;21.23;;;;;;;11.65;100.00;101712.44;5257502;28;20167;-65
2023/05/14 06:19:57;;;;;;;28.92;22.75;;;;;;;11.67;100.00;101710.50;5252017;28;20021;-65
2023/05/14 06:22:28;;;;;;;28.05;21.85;;;;;;;11.72;100.00;101716.41;5250799;28;20029;-65
2023/05/14 06:25:00;;;;;;;25.92;21.02;;;;;;;11.77;100.00;101722.28;5252370;28;20112;-65
2023/05/14 06:27:31;;;;;;;26.30;20.58;;;;;;;11.81;100.00;101725.63;5253181;28;20025;-65
2023/05/14 06:30:03;;;;;;;27.60;20.55;;;;;;;11.85;100.00;101727.13;5253059;28;20067;-65
2023/05/14 06:32:34;;;;;;;25.98;21.17;;;;;;;11.88;100.00;101718.91;5255620;28;20394;-65
2023/05/14 06:35:06;;;;;;;28.60;20.10;;;;;;;11.93;100.00;101722.16;5256232;28;20394;-65
2023/05/14 06:37:37;;;;;;;27.60;21.48;;;;;;;12.02;100.00;101721.50;5254858;28;20082;-65
2023/05/14 06:40:09;;;;;;;25.52;20.27;;;;;;;12.08;100.00;101723.78;5251960;28;20171;-65
2023/05/14 06:42:41;;;;;;;27.00;19.90;;;;;;;12.16;100.00;101725.94;5252879;28;20028;-65
2023/05/14 06:45:12;;;;;;;26.02;19.77;;;;;;;12.21;100.00;101722.91;5252926;28;20395;-65
2023/05/14 06:47:44;;;;;;;28.02;19.98;;;;;;;12.23;100.00;101721.00;5251797;28;20115;-65
2023/05/14 06:50:15;;;;;;;27.90;20.35;;;;;;;12.30;100.00;101720.47;5252824;28;20087;-65
2023/05/14 06:52:47;;;;;;;25.98;19.30;;;;;;;12.37;100.00;101715.56;5252011;28;20028;-64
2023/05/14 06:55:18;;;;;;;26.30;18.67;;;;;;;12.47;100.00;101715.75;5257353;28;20059;-64
2023/05/14 06:57:49;;;;;;;26.10;19.42;;;;;;;12.52;100.00;101718.94;5263409;28;20036;-65
2023/05/14 07:00:21;;;;;;;22.92;18.75;;;;;;;12.62;100.00;101713.78;5253336;28;20399;-65
2023/05/14 07:02:53;;;;;;;26.33;19.38;;;;;;;12.83;100.00;101720.31;5251429;28;20025;-65
2023/05/14 07:05:24;;;;;;;24.90;18.67;;;;;;;12.85;100.00;101710.34;5254093;28;20044;-65
2023/05/14 07:07:56;;;;;;;23.15;18.95;;;;;;;12.99;100.00;101714.69;5255318;28;20033;-65
2023/05/14 07:10:27;;;;;;;24.40;18.48;;;;;;;13.07;100.00;101708.75;5250502;28;20449;-65
2023/05/14 07:12:59;;;;;;;22.98;18.30;;;;;;;13.20;100.00;101703.38;5252551;28;20469;-65
2023/05/14 07:15:30;;;;;;;26.48;18.88;;;;;;;13.19;100.00;101709.69;5252403;28;20433;-65
2023/05/14 07:18:02;;;;;;;24.60;18.23;;;;;;;13.31;100.00;101706.16;5258102;28;20064;-65
2023/05/14 07:20:33;;;;;;;24.17;18.00;;;;;;;13.31;100.00;101698.94;5260315;28;20025;-65
2023/05/14 07:23:05;;;;;;;25.08;19.02;;;;;;;13.41;100.00;101706.31;5261745;28;20236;-65
2023/05/14 07:25:36;;;;;;;22.38;18.17;;;;;;;13.48;100.00;101711.09;5265281;28;20493;-65
2023/05/14 07:28:07;;;;;;;21.77;17.83;;;;;;;13.53;100.00;101711.59;5262494;28;20133;-66
2023/05/14 07:30:39;;;;;;;23.15;16.85;;;;;;;13.61;100.00;101707.47;5269549;28;20052;-65
2023/05/14 07:33:10;;;;;;;21.17;16.70;;;;;;;13.67;100.00;101705.22;5261506;28;20086;-65
2023/05/14 07:35:41;;;;;;;19.17;16.17;;;;;;;13.71;100.00;101697.75;5256947;28;20099;-65
2023/05/14 07:38:13;;;;;;;21.02;16.90;;;;;;;13.82;100.00;101710.34;5256115;28;20087;-65
2023/05/14 07:40:45;;;;;;;20.35;16.85;;;;;;;13.86;100.00;101707.31;5267429;28;20059;-64
2023/05/14 07:43:16;;;;;;;21.25;16.60;;;;;;;13.92;100.00;101717.59;5267514;28;20029;-65
2023/05/14 07:45:47;;;;;;;23.80;16.40;;;;;;;14.02;100.00;101707.00;5260516;28;20323;-65
2023/05/14 07:48:19;;;;;;;23.48;16.67;;;;;;;14.15;100.00;101722.16;5255907;28;20479;-65
2023/05/14 07:50:50;;;;;;;20.77;16.98;;;;;;;14.24;100.00;101708.84;5262073;28;20099;-65
2023/05/14 07:53:22;;;;;;;22.00;16.20;;;;;;;14.38;100.00;101704.25;5263969;28;20390;-65
2023/05/14 07:55:53;;;;;;;19.08;15.73;;;;;;;14.47;100.00;101700.81;5258496;28;20028;-65
2023/05/14 07:58:26;;;;;;;20.17;16.10;;;;;;;14.53;100.00;101700.34;5259286;28;20035;-65
2023/05/14 08:01:00;;;;;;;19.25;16.08;;;;;;;14.66;100.00;101697.56;5258367;28;20102;-65
2023/05/14 08:03:32;;;;;;;18.70;15.23;;;;;;;14.69;100.00;101698.19;5254367;28;20086;-65
2023/05/14 08:06:04;;;;;;;17.77;15.02;;;;;;;14.84;100.00;101688.03;5254416;28;20333;-65
2023/05/14 08:08:35;;;;;;;18.65;14.93;;;;;;;14.92;100.00;101689.22;5252204;28;20496;-65
2023/05/14 08:11:07;;;;;;;19.27;15.00;;;;;;;15.07;100.00;101696.03;5255329;28;20425;-65
2023/05/14 08:13:38;;;;;;;17.95;14.55;;;;;;;15.15;100.00;101693.59;5257442;28;20024;-65
2023/05/14 08:16:10;;;;;;;19.33;14.68;;;;;;;15.28;100.00;101696.09;5258785;28;20867;-65
2023/05/14 08:18:41;;;;;;;18.90;13.82;;;;;;;15.40;100.00;101686.19;5255816;28;20039;-65
2023/05/14 08:21:12;;;;;;;19.42;14.80;;;;;;;15.40;100.00;101687.03;5258278;28;20077;-65
2023/05/14 08:23:44;;;;;;;18.05;15.20;;;;;;;15.48;100.00;101694.44;5257251;28;20099;-65
2023/05/14 08:26:15;;;;;;;18.85;14.57;;;;;;;15.52;100.00;101695.03;5258954;28;20025;-65
2023/05/14 08:28:47;;;;;;;16.65;13.40;;;;;;;15.54;100.00;101693.06;5257681;28;20425;-65
2023/05/14 08:31:18;;;;;;;17.58;14.45;;;;;;;15.53;100.00;101688.66;5257064;28;20127;-65
2023/05/14 08:33:49;;;;;;;20.50;14.02;;;;;;;15.57;100.00;101693.69;5259278;28;20043;-65
2023/05/14 08:36:21;;;;;;;18.55;13.35;;;;;;;15.68;100.00;101682.00;5257874;28;20501;-65
2023/05/14 08:38:52;;;;;;;17.33;13.85;;;;;;;15.69;100.00;101687.25;5263040;28;20395;-65
2023/05/14 08:41:24;;;;;;;19.13;13.95;;;;;;;15.77;100.00;101681.25;5255920;28;20297;-65
2023/05/14 08:44:18;;;;;;;18.67;14.13;;;;;;;15.82;100.00;101679.03;5257824;28;20052;-65
2023/05/14 08:46:50;;;;;;;17.08;13.52;;;;;;;15.82;100.00;101678.16;5256200;28;21157;-66
2023/05/14 08:49:41;;;;;;;19.48;13.88;;;;;;;15.90;100.00;101667.59;5258626;28;20032;-65
2023/05/14 08:52:15;;;;;;;16.77;13.93;;;;;;;15.98;100.00;101665.09;5252693;28;20052;-65
2023/05/14 08:54:49;;;;;;;18.10;13.50;;;;;;;16.12;100.00;101657.66;5264369;28;20078;-65
2023/05/14 08:57:23;;;;;;;;;;;;;;;16.23;100.00;101663.81;5263400;28;20046;-65
2023/05/14 08:59:55;;;;;;;16.80;13.85;;;;;;;16.24;100.00;101660.13;5260442;28;19917;-65
2023/05/14 09:02:28;;;;;;;18.58;13.23;;;;;;;16.35;100.00;101651.09;5258768;28;20395;-65
2023/05/14 09:05:02;;;;;;;16.38;12.65;;;;;;;16.52;100.00;101659.53;5261678;28;20052;-65
2023/05/14 09:07:34;;;;;;;17.63;12.73;;;;;;;16.55;100.00;101651.16;5263681;28;20074;-65
2023/05/14 09:10:07;;;;;;;15.82;11.68;;;;;;;16.76;100.00;101653.78;5263869;28;21127;-65
2023/05/14 09:12:39;;;;;;;13.02;11.07;;;;;;;16.93;100.00;101647.78;5264859;28;20031;-66
2023/05/14 09:15:10;;;;;;;15.00;11.27;;;;;;;17.00;100.00;101642.66;5267867;28;20036;-63
2023/05/14 09:17:43;;;;;;;14.13;11.45;;;;;;;17.14;100.00;101644.09;5275366;28;20379;-63
2023/05/14 09:20:14;;;;;;;14.88;11.45;;;;;;;17.21;100.00;101640.69;5264176;28;20040;-63
2023/05/14 09:22:45;;;;;;;14.88;10.82;;;;;;;17.29;100.00;101637.28;5270439;28;20054;-63
2023/05/14 09:25:17;;;;;;;13.35;10.45;;;;;;;17.40;100.00;101631.75;5262150;28;20024;-62
2023/05/14 09:27:49;;;;;;;17.25;11.80;;;;;;;17.56;100.00;101638.41;5265443;28;20481;-64
2023/05/14 09:30:21;;;;;;;14.77;11.32;;;;;;;17.69;100.00;101633.56;5267239;28;20028;-63
2023/05/14 09:32:53;;;;;;;16.67;11.55;;;;;;;17.76;100.00;101631.16;5269795;28;20037;-63
2023/05/14 09:35:25;;;;;;;18.70;10.23;;;;;;;17.67;100.00;101637.41;5267832;28;20028;-62
2023/05/14 09:37:56;;;;;;;14.02;9.02;;;;;;;17.78;100.00;101631.84;5263027;28;20044;-63
2023/05/14 09:40:27;;;;;;;13.40;9.27;;;;;;;17.78;100.00;101632.69;5282930;28;20035;-63
2023/05/14 09:43:00;;;;;;;11.88;10.50;;;;;;;17.81;100.00;101629.72;5262887;28;20036;-62
2023/05/14 09:45:33;;;;;;;11.73;9.65;;;;;;;17.83;100.00;101638.53;5265183;28;20052;-62
2023/05/14 09:48:05;;;;;;;13.00;9.73;;;;;;;17.90;100.00;101628.00;5256547;28;20028;-62
2023/05/14 09:50:44;;;;;;;11.23;8.93;;;;;;;17.93;100.00;101629.56;5256381;28;20062;-63
2023/05/14 09:53:16;;;;;;;12.48;9.48;;;;;;;18.11;100.00;101626.97;5260709;28;20055;-62
2023/05/14 09:55:48;;;;;;;10.38;9.02;;;;;;;18.15;100.00;101637.31;5260948;28;20028;-63
2023/05/14 09:58:19;;;;;;;10.57;8.45;;;;;;;18.21;100.00;101619.66;5260195;28;20031;-63
2023/05/14 10:00:52;;;;;;;11.05;9.35;;;;;;;18.26;100.00;101625.47;5262805;28;20226;-62
2023/05/14 10:03:26;;;;;;;12.00;9.15;;;;;;;18.36;100.00;101622.72;5263511;28;20024;-63
2023/05/14 10:06:03;;;;;;;12.10;8.30;;;;;;;18.44;100.00;101621.97;5260822;28;20044;-63
2023/05/14 10:08:40;;;;;;;13.93;9.05;;;;;;;18.65;100.00;101627.13;5259774;28;20072;-64
2023/05/14 10:11:23;;;;;;;12.82;9.30;;;;;;;18.54;100.00;101610.13;5262047;28;20763;-64
2023/05/14 10:14:00;;;;;;;12.37;8.97;;;;;;;18.57;100.00;101612.50;5258819;28;20183;-63
2023/05/14 10:16:36;;;;;;;11.65;8.95;;;;;;;18.57;100.00;101607.13;5258320;28;20050;-64
2023/05/14 10:19:10;;;;;;;13.93;8.38;;;;;;;18.52;100.00;101612.09;5262175;28;20042;-64
2023/05/14 10:21:46;;;;;;;12.27;9.68;;;;;;;18.58;100.00;101610.66;5262161;28;20020;-63
2023/05/14 10:24:18;;;;;;;9.73;8.65;;;;;;;18.59;100.00;101599.69;5267076;28;20032;-64
2023/05/14 10:26:50;;;;;;;13.50;8.93;;;;;;;18.69;100.00;101609.59;5273343;28;20123;-64
2023/05/14 10:29:36;;;;;;;9.50;7.75;;;;;;;18.88;100.00;101611.38;5266797;28;20023;-64
2023/05/14 10:32:08;;;;;;;10.13;7.65;;;;;;;18.95;100.00;101607.06;5259291;28;20035;-64
2023/05/14 10:34:45;;;;;;;8.63;6.65;;;;;;;19.08;100.00;101604.81;5293605;28;20087;-63
2023/05/14 10:37:20;;;;;;;8.32;6.40;;;;;;;18.94;100.00;101600.78;5264872;28;20051;-64
2023/05/14 10:40:18;;;;;;;11.30;6.43;;;;;;;19.16;100.00;101599.47;5265377;28;20028;-64
2023/05/14 10:42:49;;;;;;;9.35;6.72;;;;;;;19.08;100.00;101602.13;5257029;28;20375;-63
2023/05/14 10:45:21;;;;;;;11.15;6.68;;;;;;;19.04;100.00;101597.16;5261535;28;20033;-64
2023/05/14 10:47:53;;;;;;;9.70;7.40;;;;;;;19.13;100.00;101598.94;5263062;28;20123;-64
2023/05/14 10:50:25;;;;;;;14.60;8.50;;;;;;;19.17;100.00;101586.78;5290607;27;20020;-64
2023/05/14 10:52:56;;;;;;;10.32;6.97;;;;;;;19.19;100.00;101584.78;5259379;28;20083;-65
2023/05/14 10:55:28;;;;;;;11.23;8.45;;;;;;;19.27;100.00;101574.03;5266890;28;20025;-64
2023/05/14 10:58:03;;;;;;;10.50;8.30;;;;;;;19.56;100.00;101581.03;5261975;28;20031;-64
2023/05/14 11:00:34;;;;;;;9.48;5.80;;;;;;;19.69;100.00;101581.44;5265439;28;20029;-64
2023/05/14 11:03:06;;;;;;;9.75;6.53;;;;;;;19.66;100.00;101576.34;5260949;28;20087;-64
2023/05/14 11:05:39;;;;;;;9.55;7.10;;;;;;;19.65;100.00;101579.22;5262844;28;20605;-64
2023/05/14 11:08:11;;;;;;;8.50;6.70;;;;;;;19.51;100.00;101581.47;5274118;28;20228;-64
2023/05/14 11:10:44;;;;;;;8.98;7.40;;;;;;;19.55;100.00;101573.91;5266316;28;20372;-64
2023/05/14 11:13:17;;;;;;;9.20;6.45;;;;;;;19.57;100.00;101574.59;5266302;28;20033;-64
2023/05/14 11:15:49;;;;;;;7.03;6.05;;;;;;;19.57;100.00;101561.91;5264105;28;20232;-64
2023/05/14 11:18:39;;;;;;;9.75;6.63;;;;;;;19.65;100.00;101569.22;5266906;28;20321;-64
2023/05/14 11:21:10;;;;;;;9.68;6.50;;;;;;;19.80;100.00;101557.84;5259739;28;20029;-64
2023/05/14 11:23:45;;;;;;;11.75;6.70;;;;;;;19.76;100.00;101552.75;5271228;28;20028;-64
2023/05/14 11:26:16;;;;;;;7.90;6.50;;;;;;;19.87;100.00;101557.03;5263102;28;20063;-64
2023/05/14 11:28:48;;;;;;;8.95;6.18;;;;;;;20.00;100.00;101559.31;5263312;28;20104;-65